createdAt,value
2017-12-29T00:01:06.009Z,0.20
2017-12-29T00:03:34.359Z,0.20
2017-12-29T00:06:01.938Z,0.20
2017-12-29T00:08:30.282Z,0.20
2017-12-29T00:10:57.863Z,0.10
2017-12-29T00:13:25.441Z,0.20
2017-12-29T00:15:53.790Z,0.10
2017-12-29T00:18:23.489Z,0.10
2017-12-29T00:20:51.098Z,0.10
2017-12-29T00:23:18.670Z,0.10
2017-12-29T00:25:46.262Z,0.10
2017-12-29T00:28:13.843Z,0.10
2017-12-29T00:30:41.422Z,0.10
2017-12-29T00:33:09.771Z,0.10
2017-12-29T00:35:37.360Z,0.10
2017-12-29T00:38:05.705Z,0.10
2017-12-29T00:40:33.286Z,0.10
2017-12-29T00:43:01.634Z,0.10
2017-12-29T00:45:29.254Z,0.10
2017-12-29T00:47:56.829Z,0.10
2017-12-29T00:50:24.409Z,0.10
2017-12-29T00:52:51.997Z,0.10
2017-12-29T00:55:20.351Z,0.20
2017-12-29T00:57:47.934Z,0.20
2017-12-29T01:00:16.278Z,0.20
2017-12-29T01:02:43.858Z,0.10
2017-12-29T01:05:11.486Z,0.20
2017-12-29T01:07:39.066Z,0.20
2017-12-29T01:10:06.642Z,0.20
2017-12-29T01:12:34.217Z,0.20
2017-12-29T01:15:02.571Z,0.20
2017-12-29T01:17:30.158Z,0.10
2017-12-29T01:19:57.743Z,0.20
2017-12-29T01:22:25.322Z,0.20
2017-12-29T01:24:52.950Z,0.20
2017-12-29T01:27:20.563Z,0.20
2017-12-29T01:29:48.144Z,0.20
2017-12-29T01:32:16.490Z,0.20
2017-12-29T01:34:44.576Z,0.10
2017-12-29T01:37:12.153Z,0.20
2017-12-29T01:39:40.507Z,0.10
2017-12-29T01:42:09.081Z,0.10
2017-12-29T01:44:36.659Z,0.10
2017-12-29T01:47:04.230Z,0.10
2017-12-29T01:49:32.581Z,0.00
2017-12-29T01:52:00.153Z,0.00
2017-12-29T01:54:27.722Z,0.10
2017-12-29T01:56:56.062Z,0.10
2017-12-29T01:59:23.638Z,0.10
2017-12-29T02:01:51.221Z,0.10
2017-12-29T02:04:19.566Z,0.10
2017-12-29T02:06:47.774Z,0.00
2017-12-29T02:09:16.114Z,0.10
2017-12-29T02:11:43.706Z,0.10
2017-12-29T02:14:12.055Z,0.10
2017-12-29T02:16:39.634Z,0.10
2017-12-29T02:19:07.214Z,0.20
2017-12-29T02:21:34.809Z,0.20
2017-12-29T02:24:02.395Z,0.20
2017-12-29T02:26:29.971Z,0.10
2017-12-29T02:28:57.559Z,0.20
2017-12-29T02:31:25.146Z,0.10
2017-12-29T02:33:52.733Z,0.10
2017-12-29T02:36:20.359Z,0.10
2017-12-29T02:38:47.943Z,0.20
2017-12-29T02:41:15.517Z,0.20
2017-12-29T02:43:43.098Z,0.20
2017-12-29T02:46:11.448Z,0.20
2017-12-29T02:48:39.037Z,0.20
2017-12-29T02:51:07.418Z,0.20
2017-12-29T02:53:36.269Z,0.20
2017-12-29T02:56:03.852Z,0.20
2017-12-29T02:58:32.266Z,0.20
2017-12-29T03:00:59.846Z,0.20
2017-12-29T03:03:27.421Z,0.20
2017-12-29T03:05:55.001Z,0.20
2017-12-29T03:08:22.580Z,0.20
2017-12-29T03:10:50.929Z,0.20
2017-12-29T03:13:18.506Z,0.20
2017-12-29T03:15:46.901Z,0.20
2017-12-29T03:18:14.478Z,0.20
2017-12-29T03:20:42.058Z,0.20
2017-12-29T03:23:09.635Z,0.20
2017-12-29T03:25:37.209Z,0.20
2017-12-29T03:28:11.690Z,0.20
2017-12-29T03:30:39.267Z,0.20
2017-12-29T03:33:06.842Z,0.20
2017-12-29T03:35:34.423Z,0.20
2017-12-29T03:38:02.774Z,0.20
2017-12-29T03:40:30.385Z,0.20
2017-12-29T03:42:57.964Z,0.20
2017-12-29T03:45:25.542Z,0.20
2017-12-29T03:47:53.121Z,0.20
2017-12-29T03:50:20.699Z,0.10
2017-12-29T03:52:49.094Z,0.20
2017-12-29T03:55:16.678Z,0.20
2017-12-29T03:57:44.256Z,0.20
2017-12-29T04:00:11.834Z,0.20
2017-12-29T04:02:39.412Z,0.20
2017-12-29T04:05:07.754Z,0.20
2017-12-29T04:07:35.344Z,0.10
2017-12-29T04:10:03.762Z,0.20
2017-12-29T04:12:31.351Z,0.20
2017-12-29T04:14:58.929Z,0.20
2017-12-29T04:17:26.581Z,0.20
2017-12-29T04:19:54.154Z,0.20
2017-12-29T04:22:21.738Z,0.20
2017-12-29T04:24:49.314Z,0.20
2017-12-29T04:27:16.886Z,0.20
2017-12-29T04:29:44.457Z,0.20
2017-12-29T04:32:12.038Z,0.20
2017-12-29T04:34:39.617Z,0.20
2017-12-29T04:37:07.965Z,0.20
2017-12-29T04:39:35.584Z,0.20
2017-12-29T04:42:03.158Z,0.20
2017-12-29T04:44:30.737Z,0.30
2017-12-29T04:46:58.323Z,0.30
2017-12-29T04:49:25.897Z,0.30
2017-12-29T04:51:54.242Z,0.30
2017-12-29T04:54:21.818Z,0.20
2017-12-29T04:56:49.394Z,0.30
2017-12-29T04:59:17.743Z,0.20
2017-12-29T05:01:45.367Z,0.20
2017-12-29T05:04:12.950Z,0.20
2017-12-29T05:06:40.530Z,0.20
2017-12-29T05:09:15.826Z,0.30
2017-12-29T05:11:43.402Z,0.20
2017-12-29T05:14:10.982Z,0.20
2017-12-29T05:16:38.575Z,0.20
2017-12-29T05:19:06.150Z,0.20
2017-12-29T05:21:33.725Z,0.20
2017-12-29T05:24:01.303Z,0.20
2017-12-29T05:26:28.877Z,0.20
2017-12-29T05:28:56.454Z,0.20
2017-12-29T05:31:24.799Z,0.20
2017-12-29T05:33:52.378Z,0.20
2017-12-29T05:36:19.951Z,0.20
2017-12-29T05:38:48.291Z,0.20
2017-12-29T05:41:15.869Z,0.20
2017-12-29T05:43:43.515Z,0.20
2017-12-29T05:46:11.094Z,0.20
2017-12-29T05:48:38.679Z,0.20
2017-12-29T05:51:06.262Z,0.20
2017-12-29T05:53:33.841Z,0.20
2017-12-29T05:56:01.417Z,0.20
2017-12-29T05:58:28.993Z,0.20
2017-12-29T06:00:57.342Z,0.20
2017-12-29T06:03:24.914Z,0.20
2017-12-29T06:05:52.485Z,0.20
2017-12-29T06:08:20.070Z,0.10
2017-12-29T06:10:47.641Z,0.10
2017-12-29T06:13:15.218Z,0.10
2017-12-29T06:15:42.846Z,0.10
2017-12-29T06:18:10.426Z,0.20
2017-12-29T06:20:38.003Z,0.20
2017-12-29T06:23:05.579Z,0.20
2017-12-29T06:25:33.158Z,0.20
2017-12-29T06:28:00.738Z,0.10
2017-12-29T06:30:29.119Z,0.20
2017-12-29T06:32:56.694Z,0.10
2017-12-29T06:35:24.278Z,0.10
2017-12-29T06:37:51.854Z,0.20
2017-12-29T06:40:19.436Z,0.10
2017-12-29T06:42:47.779Z,0.10
2017-12-29T06:45:15.358Z,0.10
2017-12-29T06:47:42.989Z,0.20
2017-12-29T06:50:10.567Z,0.20
2017-12-29T06:52:38.161Z,0.20
2017-12-29T06:55:06.498Z,0.20
2017-12-29T06:57:34.091Z,0.20
2017-12-29T07:00:02.444Z,0.20
2017-12-29T07:02:30.019Z,0.20
2017-12-29T07:04:57.607Z,0.20
2017-12-29T07:07:25.188Z,0.20
2017-12-29T07:09:52.776Z,0.20
2017-12-29T07:12:20.354Z,0.20
2017-12-29T07:14:47.929Z,0.20
2017-12-29T07:17:16.270Z,0.20
2017-12-29T07:19:43.846Z,0.10
2017-12-29T07:22:11.439Z,0.20
2017-12-29T07:24:39.026Z,0.20
2017-12-29T07:27:06.612Z,0.20
2017-12-29T07:29:34.206Z,0.20
2017-12-29T07:32:02.546Z,0.10
2017-12-29T07:34:30.142Z,0.10
2017-12-29T07:36:58.484Z,0.20
2017-12-29T07:39:26.063Z,0.10
2017-12-29T07:41:54.426Z,0.20
2017-12-29T07:44:22.016Z,0.20
2017-12-29T07:46:50.358Z,0.20
2017-12-29T07:49:18.010Z,0.10
2017-12-29T07:51:45.610Z,0.20
2017-12-29T07:54:13.954Z,0.10
2017-12-29T07:56:41.534Z,0.10
2017-12-29T07:59:09.887Z,0.20
2017-12-29T08:01:37.467Z,0.20
2017-12-29T08:04:05.050Z,0.20
2017-12-29T08:06:33.425Z,0.20
2017-12-29T08:09:01.770Z,0.20
2017-12-29T08:11:29.364Z,0.20
2017-12-29T08:13:57.708Z,0.30
2017-12-29T08:16:25.286Z,0.30
2017-12-29T08:18:53.630Z,0.40
2017-12-29T08:21:21.218Z,0.40
2017-12-29T08:23:49.570Z,0.40
2017-12-29T08:26:17.227Z,0.40
2017-12-29T08:28:44.806Z,0.40
2017-12-29T08:31:12.429Z,0.50
2017-12-29T08:33:40.010Z,0.40
2017-12-29T08:36:07.586Z,0.40
2017-12-29T08:38:35.170Z,0.40
2017-12-29T08:41:03.523Z,0.50
2017-12-29T08:43:31.104Z,0.40
2017-12-29T08:45:59.547Z,0.60
2017-12-29T08:48:27.122Z,0.60
2017-12-29T08:50:54.702Z,0.60
2017-12-29T08:53:23.052Z,0.70
2017-12-29T08:55:50.633Z,0.70
2017-12-29T08:58:18.973Z,0.80
2017-12-29T09:00:46.594Z,0.80
2017-12-29T09:03:14.172Z,0.90
2017-12-29T09:05:41.750Z,0.90
2017-12-29T09:08:09.370Z,0.90
2017-12-29T09:10:36.957Z,0.90
2017-12-29T09:13:04.538Z,0.90
2017-12-29T09:15:32.144Z,0.90
2017-12-29T09:17:59.901Z,0.90
2017-12-29T09:20:27.486Z,0.90
2017-12-29T09:22:55.062Z,0.80
2017-12-29T09:25:22.640Z,0.90
2017-12-29T09:27:50.230Z,0.80
2017-12-29T09:30:18.570Z,0.90
2017-12-29T09:32:46.198Z,0.80
2017-12-29T09:35:13.774Z,0.90
2017-12-29T09:37:42.469Z,1.00
2017-12-29T09:40:10.050Z,1.10
2017-12-29T09:42:37.627Z,1.10
2017-12-29T09:45:05.970Z,1.30
2017-12-29T09:47:33.542Z,1.30
2017-12-29T09:50:01.118Z,1.40
2017-12-29T09:52:29.471Z,1.40
2017-12-29T09:54:57.042Z,1.40
2017-12-29T09:57:24.622Z,1.40
2017-12-29T09:59:52.962Z,1.50
2017-12-29T10:02:20.610Z,1.40
2017-12-29T10:04:48.198Z,1.50
2017-12-29T10:07:15.781Z,1.50
2017-12-29T10:09:44.133Z,1.50
2017-12-29T10:12:12.795Z,1.50
2017-12-29T10:14:40.366Z,1.60
2017-12-29T10:17:07.973Z,1.60
2017-12-29T10:19:35.546Z,1.60
2017-12-29T10:22:03.246Z,1.60
2017-12-29T10:24:30.836Z,1.70
2017-12-29T10:26:59.175Z,1.70
2017-12-29T10:29:26.753Z,1.70
2017-12-29T10:31:54.397Z,1.70
2017-12-29T10:34:21.995Z,1.70
2017-12-29T10:36:49.719Z,1.80
2017-12-29T10:39:17.294Z,1.80
2017-12-29T10:41:44.886Z,1.80
2017-12-29T10:44:12.491Z,1.80
2017-12-29T10:46:40.123Z,1.90
2017-12-29T10:49:07.702Z,1.90
2017-12-29T10:51:35.277Z,1.90
2017-12-29T10:54:02.858Z,2.00
2017-12-29T10:56:31.198Z,2.00
2017-12-29T10:58:58.774Z,2.00
2017-12-29T11:01:26.371Z,2.00
2017-12-29T11:03:54.717Z,2.10
2017-12-29T11:06:22.378Z,2.00
2017-12-29T11:08:49.953Z,2.00
2017-12-29T11:11:18.301Z,2.10
2017-12-29T11:13:45.957Z,2.10
2017-12-29T11:16:13.535Z,2.20
2017-12-29T11:18:41.176Z,2.20
2017-12-29T11:21:08.750Z,2.30
2017-12-29T11:23:36.333Z,2.30
2017-12-29T11:26:04.674Z,2.30
2017-12-29T11:28:32.263Z,2.20
2017-12-29T11:31:00.622Z,2.30
2017-12-29T11:36:23.805Z,2.30
2017-12-29T11:38:51.387Z,2.30
2017-12-29T11:41:19.738Z,2.40
2017-12-29T11:43:47.319Z,2.40
2017-12-29T11:46:15.710Z,2.20
2017-12-29T11:48:44.054Z,2.20
2017-12-29T11:51:11.886Z,2.20
2017-12-29T11:53:39.482Z,2.20
2017-12-29T11:56:07.116Z,2.20
2017-12-29T11:58:34.694Z,2.20
2017-12-29T12:01:02.275Z,2.20
2017-12-29T12:03:29.875Z,2.30
2017-12-29T12:05:57.454Z,2.30
2017-12-29T12:08:25.038Z,2.30
2017-12-29T12:10:52.614Z,2.30
2017-12-29T12:13:20.983Z,2.30
2017-12-29T12:15:48.565Z,2.30
2017-12-29T12:18:16.910Z,2.30
2017-12-29T12:20:44.490Z,2.30
2017-12-29T12:23:12.886Z,2.40
2017-12-29T12:25:40.471Z,2.30
2017-12-29T12:28:08.057Z,2.40
2017-12-29T12:30:35.654Z,2.40
2017-12-29T12:33:04.030Z,2.40
2017-12-29T12:35:32.374Z,2.40
2017-12-29T12:37:59.974Z,2.40
2017-12-29T12:40:27.568Z,2.40
2017-12-29T12:42:59.883Z,2.30
2017-12-29T12:45:27.475Z,2.30
2017-12-29T12:47:55.160Z,2.40
2017-12-29T12:50:22.867Z,2.30
2017-12-29T12:52:51.887Z,2.30
2017-12-29T12:55:19.578Z,2.30
2017-12-29T12:57:47.257Z,2.20
2017-12-29T13:00:15.007Z,2.20
2017-12-29T13:02:42.671Z,2.20
2017-12-29T13:05:10.451Z,2.20
2017-12-29T13:07:38.213Z,2.20
2017-12-29T13:10:05.993Z,2.20
2017-12-29T13:12:33.714Z,2.20
2017-12-29T13:15:01.436Z,2.20
2017-12-29T13:17:29.932Z,2.20
2017-12-29T13:19:57.647Z,2.20
2017-12-29T13:22:25.335Z,2.20
2017-12-29T13:24:53.898Z,2.20
2017-12-29T13:27:21.544Z,2.20
2017-12-29T13:29:49.182Z,2.30
2017-12-29T13:32:17.731Z,2.30
2017-12-29T13:34:52.112Z,2.40
2017-12-29T13:37:19.758Z,2.40
2017-12-29T13:39:47.773Z,2.40
2017-12-29T13:42:15.451Z,2.40
2017-12-29T13:44:43.836Z,2.20
2017-12-29T13:47:11.468Z,2.20
2017-12-29T13:49:59.772Z,2.10
2017-12-29T13:52:27.420Z,2.00
2017-12-29T13:54:55.089Z,1.90
2017-12-29T13:57:22.725Z,1.80
2017-12-29T13:59:50.351Z,1.80
2017-12-29T14:02:17.985Z,1.80
2017-12-29T14:04:45.615Z,1.80
2017-12-29T14:07:13.296Z,1.70
2017-12-29T14:09:41.828Z,1.70
2017-12-29T14:12:10.253Z,1.60
2017-12-29T14:14:37.938Z,1.60
2017-12-29T14:17:05.715Z,1.60
2017-12-29T14:19:33.368Z,1.60
2017-12-29T14:22:01.841Z,1.50
2017-12-29T14:24:29.573Z,1.50
2017-12-29T14:26:57.227Z,1.50
2017-12-29T14:29:24.896Z,1.40
2017-12-29T14:31:52.533Z,1.40
2017-12-29T14:34:20.940Z,1.40
2017-12-29T14:36:48.637Z,1.30
2017-12-29T14:39:16.293Z,1.40
2017-12-29T14:41:43.940Z,1.40
2017-12-29T14:44:11.567Z,1.40
2017-12-29T14:46:40.283Z,1.40
2017-12-29T14:49:07.934Z,1.40
2017-12-29T14:51:35.585Z,1.40
2017-12-29T14:54:03.239Z,1.40
2017-12-29T14:56:30.880Z,1.30
2017-12-29T14:58:58.516Z,1.30
2017-12-29T15:04:19.497Z,1.30
2017-12-29T15:06:47.178Z,1.20
2017-12-29T15:09:14.815Z,1.20
2017-12-29T15:11:42.492Z,1.20
2017-12-29T15:14:10.174Z,1.10
2017-12-29T15:16:37.783Z,1.10
2017-12-29T15:19:05.402Z,1.00
2017-12-29T15:21:33.048Z,0.90
2017-12-29T15:24:00.707Z,0.80
2017-12-29T15:26:28.352Z,0.80
2017-12-29T15:28:56.004Z,0.70
2017-12-29T15:31:23.639Z,0.60
2017-12-29T15:33:52.036Z,0.50
2017-12-29T15:36:19.707Z,0.50
2017-12-29T15:38:47.335Z,0.50
2017-12-29T15:41:14.964Z,0.50
2017-12-29T15:43:42.620Z,0.40
2017-12-29T15:46:10.310Z,0.40
2017-12-29T15:48:38.692Z,0.30
2017-12-29T15:51:15.775Z,0.20
2017-12-29T15:53:48.488Z,0.20
2017-12-29T15:56:16.111Z,0.20
2017-12-29T15:58:44.571Z,0.10
2017-12-29T16:01:13.143Z,0.10
2017-12-29T16:03:40.756Z,0.10
2017-12-29T16:06:08.375Z,0.10
2017-12-29T16:08:36.008Z,0.00
2017-12-29T16:11:03.704Z,0.00
2017-12-29T16:13:31.430Z,0.00
2017-12-29T16:15:59.042Z,0.00
2017-12-29T16:18:27.445Z,-0.10
2017-12-29T16:20:55.068Z,-0.10
2017-12-29T16:23:22.687Z,-0.10
2017-12-29T16:25:50.342Z,-0.20
2017-12-29T16:28:17.980Z,-0.20
2017-12-29T16:30:45.636Z,-0.20
2017-12-29T16:33:14.332Z,-0.30
2017-12-29T16:35:42.006Z,-0.40
2017-12-29T16:38:09.651Z,-0.40
2017-12-29T16:40:37.379Z,-0.40
2017-12-29T16:43:04.983Z,-0.50
2017-12-29T16:45:48.211Z,-0.60
2017-12-29T16:48:16.558Z,-0.60
2017-12-29T16:50:44.935Z,-0.60
2017-12-29T16:53:14.535Z,-0.60
2017-12-29T16:55:43.864Z,-0.60
2017-12-29T16:58:15.508Z,-0.70
2017-12-29T17:00:43.181Z,-0.70
2017-12-29T17:03:10.793Z,-0.70
2017-12-29T17:05:38.370Z,-0.80
2017-12-29T17:08:05.954Z,-0.80
2017-12-29T17:10:33.539Z,-0.80
2017-12-29T17:13:01.124Z,-0.80
2017-12-29T17:15:28.788Z,-0.80
2017-12-29T17:17:56.378Z,-0.80
2017-12-29T17:20:23.962Z,-0.80
2017-12-29T17:22:52.314Z,-0.70
2017-12-29T17:25:19.914Z,-0.70
2017-12-29T17:27:47.519Z,-0.70
2017-12-29T17:30:15.108Z,-0.70
2017-12-29T17:32:42.694Z,-0.60
2017-12-29T17:35:10.288Z,-0.60
2017-12-29T17:37:37.882Z,-0.70
2017-12-29T17:40:05.463Z,-0.70
2017-12-29T17:42:33.874Z,-0.70
2017-12-29T17:45:01.453Z,-0.70
2017-12-29T17:47:29.033Z,-0.70
2017-12-29T17:49:56.617Z,-0.80
2017-12-29T17:52:24.996Z,-0.80
2017-12-29T17:54:52.590Z,-0.80
2017-12-29T17:57:20.238Z,-0.80
2017-12-29T17:59:51.990Z,-0.90
2017-12-29T18:02:20.335Z,-0.90
2017-12-29T18:04:48.175Z,-0.90
2017-12-29T18:07:15.763Z,-0.90
2017-12-29T18:09:44.386Z,-1.00
2017-12-29T18:12:11.975Z,-1.00
2017-12-29T18:14:39.558Z,-1.00
2017-12-29T18:17:07.150Z,-1.10
2017-12-29T18:19:35.606Z,-1.10
2017-12-29T18:22:03.205Z,-1.10
2017-12-29T18:24:30.818Z,-1.10
2017-12-29T18:26:58.451Z,-1.10
2017-12-29T18:29:26.067Z,-1.10
2017-12-29T18:31:54.427Z,-1.10
2017-12-29T18:34:23.010Z,-1.10
2017-12-29T18:36:50.598Z,-1.10
2017-12-29T18:39:19.027Z,-1.10
2017-12-29T18:41:46.942Z,-1.10
2017-12-29T18:44:15.415Z,-1.10
2017-12-29T18:46:43.014Z,-1.10
2017-12-29T18:49:10.602Z,-1.20
2017-12-29T18:51:38.211Z,-1.20
2017-12-29T18:54:06.686Z,-1.20
2017-12-29T18:56:35.047Z,-1.20
2017-12-29T18:59:02.699Z,-1.20
2017-12-29T19:01:30.333Z,-1.20
2017-12-29T19:03:57.928Z,-1.10
2017-12-29T19:06:25.549Z,-1.10
2017-12-29T19:08:53.144Z,-1.10
2017-12-29T19:11:20.730Z,-1.10
2017-12-29T19:13:49.111Z,-1.20
2017-12-29T19:16:17.550Z,-1.10
2017-12-29T19:18:45.130Z,-1.20
2017-12-29T19:21:12.835Z,-1.20
2017-12-29T19:23:42.220Z,-1.20
2017-12-29T19:26:10.578Z,-1.20
2017-12-29T19:28:38.195Z,-1.20
2017-12-29T19:31:06.091Z,-1.20
2017-12-29T19:33:33.786Z,-1.20
2017-12-29T19:36:02.204Z,-1.20
2017-12-29T19:38:29.851Z,-1.30
2017-12-29T19:41:00.748Z,-1.30
2017-12-29T19:43:28.452Z,-1.30
2017-12-29T19:45:56.108Z,-1.30
2017-12-29T19:48:23.777Z,-1.30
2017-12-29T19:50:51.409Z,-1.40
2017-12-29T19:53:19.819Z,-1.40
2017-12-29T19:55:47.475Z,-1.40
2017-12-29T19:58:15.115Z,-1.40
2017-12-29T20:00:43.546Z,-1.40
2017-12-29T20:03:11.197Z,-1.40
2017-12-29T20:05:44.679Z,-1.40
2017-12-29T20:08:12.331Z,-1.40
2017-12-29T20:10:39.977Z,-1.40
2017-12-29T20:13:07.724Z,-1.40
2017-12-29T20:15:35.376Z,-1.30
2017-12-29T20:18:03.020Z,-1.40
2017-12-29T20:20:30.712Z,-1.40
2017-12-29T20:22:59.170Z,-1.30
2017-12-29T20:25:26.865Z,-1.40
2017-12-29T20:27:54.980Z,-1.40
2017-12-29T20:30:22.634Z,-1.40
2017-12-29T20:32:50.313Z,-1.40
2017-12-29T20:35:18.005Z,-1.40
2017-12-29T20:37:46.488Z,-1.40
2017-12-29T20:40:15.072Z,-1.40
2017-12-29T20:42:43.595Z,-1.40
2017-12-29T20:45:11.315Z,-1.50
2017-12-29T20:47:38.934Z,-1.40
2017-12-29T20:50:06.527Z,-1.40
2017-12-29T20:52:34.118Z,-1.40
2017-12-29T20:55:01.706Z,-1.40
2017-12-29T20:57:30.063Z,-1.40
2017-12-29T20:59:57.669Z,-1.50
2017-12-29T21:02:25.283Z,-1.40
2017-12-29T21:04:52.899Z,-1.50
2017-12-29T21:07:20.518Z,-1.50
2017-12-29T21:09:48.132Z,-1.50
2017-12-29T21:12:15.730Z,-1.50
2017-12-29T21:14:43.333Z,-1.50
2017-12-29T21:17:11.172Z,-1.60
2017-12-29T21:19:39.056Z,-1.50
2017-12-29T21:22:06.680Z,-1.50
2017-12-29T21:24:34.579Z,-1.50
2017-12-29T21:27:02.177Z,-1.40
2017-12-29T21:29:30.782Z,-1.40
2017-12-29T21:31:58.607Z,-1.40
2017-12-29T21:34:26.218Z,-1.40
2017-12-29T21:36:53.822Z,-1.40
2017-12-29T21:39:21.459Z,-1.40
2017-12-29T21:41:49.077Z,-1.40
2017-12-29T21:44:17.461Z,-1.40
2017-12-29T21:46:46.140Z,-1.40
2017-12-29T21:49:14.518Z,-1.40
2017-12-29T21:51:43.123Z,-1.40
2017-12-29T21:54:10.791Z,-1.40
2017-12-29T21:56:38.415Z,-1.40
2017-12-29T21:59:06.788Z,-1.40
2017-12-29T22:01:35.186Z,-1.40
2017-12-29T22:04:02.780Z,-1.40
2017-12-29T22:06:30.383Z,-1.40
2017-12-29T22:08:58.019Z,-1.40
2017-12-29T22:11:25.627Z,-1.40
2017-12-29T22:13:53.222Z,-1.40
2017-12-29T22:16:20.809Z,-1.40
2017-12-29T22:18:48.419Z,-1.50
2017-12-29T22:21:19.898Z,-1.50
2017-12-29T22:23:47.507Z,-1.50
2017-12-29T22:26:15.878Z,-1.50
2017-12-29T22:28:44.255Z,-1.60
2017-12-29T22:31:12.629Z,-1.60
2017-12-29T22:33:41.061Z,-1.60
2017-12-29T22:36:08.658Z,-1.70
2017-12-29T22:38:37.059Z,-1.70
2017-12-29T22:41:04.894Z,-1.70
2017-12-29T22:43:32.494Z,-1.70
2017-12-29T22:46:00.070Z,-1.70
2017-12-29T22:48:27.662Z,-1.70
2017-12-29T22:50:55.250Z,-1.80
2017-12-29T22:53:23.615Z,-1.90
2017-12-29T22:55:51.242Z,-1.90
2017-12-29T22:58:19.959Z,-1.90
2017-12-29T23:00:47.554Z,-1.90
2017-12-29T23:03:15.142Z,-1.90
2017-12-29T23:05:42.755Z,-1.90
2017-12-29T23:08:11.119Z,-1.90
2017-12-29T23:10:38.778Z,-2.00
2017-12-29T23:13:06.366Z,-1.90
2017-12-29T23:15:33.962Z,-2.00
2017-12-29T23:18:01.555Z,-1.90
2017-12-29T23:20:29.150Z,-2.00
2017-12-29T23:22:56.743Z,-2.00
2017-12-29T23:25:24.331Z,-2.00
2017-12-29T23:27:51.930Z,-2.00
2017-12-29T23:30:19.523Z,-2.00
2017-12-29T23:32:47.146Z,-2.00
2017-12-29T23:35:14.735Z,-2.00
2017-12-29T23:37:42.322Z,-1.90
2017-12-29T23:40:10.811Z,-2.00
2017-12-29T23:42:38.399Z,-2.00
2017-12-29T23:45:06.799Z,-2.00
2017-12-29T23:47:34.406Z,-2.00
2017-12-29T23:50:02.076Z,-2.00
2017-12-29T23:52:29.683Z,-2.10
2017-12-29T23:54:57.378Z,-2.10
2017-12-29T23:57:25.033Z,-2.00
2017-12-29T23:59:52.610Z,-2.00
